sensor_id;sensor_type;location;lat;lon;timestamp;pressure;altitude;pressure_sealevel;temperature;humidity
12219;BME280;6172;42.646;23.344;2023-11-22T00:00:07;93905.66;;;5.35;100.00
12219;BME280;6172;42.646;23.344;2023-11-22T00:02:35;93914.00;;;5.51;100.00
12219;BME280;6172;42.646;23.344;2023-11-22T00:05:03;93919.22;;;5.72;100.00
12219;BME280;6172;42.646;23.344;2023-11-22T00:07:32;93924.19;;;5.77;100.00
12219;BME280;6172;42.646;23.344;2023-11-22T00:10:02;93911.09;;;5.76;100.00
12219;BME280;6172;42.646;23.344;2023-11-22T00:12:30;93897.88;;;5.81;100.00
12219;BME280;6172;42.646;23.344;2023-11-22T00:15:02;93899.75;;;5.88;100.00
12219;BME280;6172;42.646;23.344;2023-11-22T00:17:30;93887.63;;;5.99;100.00
12219;BME280;6172;42.646;23.344;2023-11-22T00:19:57;93896.22;;;5.57;100.00
12219;BME280;6172;42.646;23.344;2023-11-22T00:22:29;93897.81;;;5.51;100.00
12219;BME280;6172;42.646;23.344;2023-11-22T00:24:57;93902.09;;;5.45;100.00
12219;BME280;6172;42.646;23.344;2023-11-22T00:27:28;93887.94;;;5.34;100.00
12219;BME280;6172;42.646;23.344;2023-11-22T00:29:56;93897.81;;;5.47;100.00
12219;BME280;6172;42.646;23.344;2023-11-22T00:32:23;93906.63;;;5.55;100.00
12219;BME280;6172;42.646;23.344;2023-11-22T00:34:51;93891.53;;;5.17;100.00
12219;BME280;6172;42.646;23.344;2023-11-22T00:37:18;93910.59;;;5.47;100.00
12219;BME280;6172;42.646;23.344;2023-11-22T00:39:45;93889.13;;;5.29;100.00
12219;BME280;6172;42.646;23.344;2023-11-22T00:42:12;93904.81;;;5.45;100.00
12219;BME280;6172;42.646;23.344;2023-11-22T00:44:40;93897.03;;;5.50;100.00
12219;BME280;6172;42.646;23.344;2023-11-22T00:47:07;93913.69;;;5.42;100.00
12219;BME280;6172;42.646;23.344;2023-11-22T00:49:34;93906.63;;;5.58;100.00
12219;BME280;6172;42.646;23.344;2023-11-22T00:52:01;93895.16;;;5.44;100.00
12219;BME280;6172;42.646;23.344;2023-11-22T00:54:28;93901.25;;;5.51;100.00
12219;BME280;6172;42.646;23.344;2023-11-22T00:56:55;93890.41;;;5.55;100.00
12219;BME280;6172;42.646;23.344;2023-11-22T00:59:22;93890.41;;;5.58;100.00
12219;BME280;6172;42.646;23.344;2023-11-22T01:01:50;93886.03;;;5.72;100.00
12219;BME280;6172;42.646;23.344;2023-11-22T01:04:17;93892.91;;;5.76;100.00
12219;BME280;6172;42.646;23.344;2023-11-22T01:06:44;93901.00;;;5.76;100.00
12219;BME280;6172;42.646;23.344;2023-11-22T01:09:11;93897.03;;;5.88;100.00
12219;BME280;6172;42.646;23.344;2023-11-22T01:11:39;93884.28;;;5.88;100.00
12219;BME280;6172;42.646;23.344;2023-11-22T01:14:06;93893.81;;;6.00;100.00
12219;BME280;6172;42.646;23.344;2023-11-22T01:16:33;93879.97;;;5.94;100.00
12219;BME280;6172;42.646;23.344;2023-11-22T01:19:03;93883.56;;;5.84;100.00
12219;BME280;6172;42.646;23.344;2023-11-22T01:21:30;93875.84;;;5.83;100.00
12219;BME280;6172;42.646;23.344;2023-11-22T01:23:57;93878.97;;;5.81;100.00
12219;BME280;6172;42.646;23.344;2023-11-22T01:26:25;93860.06;;;5.77;100.00
12219;BME280;6172;42.646;23.344;2023-11-22T01:28:52;93864.72;;;5.77;100.00
12219;BME280;6172;42.646;23.344;2023-11-22T01:31:19;93869.25;;;5.87;100.00
12219;BME280;6172;42.646;23.344;2023-11-22T01:33:47;93873.16;;;5.83;100.00
12219;BME280;6172;42.646;23.344;2023-11-22T01:36:15;93871.91;;;5.91;100.00
12219;BME280;6172;42.646;23.344;2023-11-22T01:38:42;93864.72;;;5.77;100.00
12219;BME280;6172;42.646;23.344;2023-11-22T01:41:10;93864.66;;;5.84;100.00
12219;BME280;6172;42.646;23.344;2023-11-22T01:43:38;93839.84;;;5.89;100.00
12219;BME280;6172;42.646;23.344;2023-11-22T01:46:07;93838.69;;;5.90;100.00
12219;BME280;6172;42.646;23.344;2023-11-22T01:48:35;93841.06;;;5.85;100.00
12219;BME280;6172;42.646;23.344;2023-11-22T01:51:02;93843.66;;;5.95;100.00
12219;BME280;6172;42.646;23.344;2023-11-22T01:53:32;93844.53;;;5.85;100.00
12219;BME280;6172;42.646;23.344;2023-11-22T01:55:59;93849.84;;;5.96;100.00
12219;BME280;6172;42.646;23.344;2023-11-22T01:58:26;93848.59;;;5.70;100.00
12219;BME280;6172;42.646;23.344;2023-11-22T02:00:54;93851.06;;;5.88;100.00
12219;BME280;6172;42.646;23.344;2023-11-22T02:03:21;93834.19;;;5.80;100.00
12219;BME280;6172;42.646;23.344;2023-11-22T02:05:50;93847.72;;;5.77;100.00
12219;BME280;6172;42.646;23.344;2023-11-22T02:08:18;93839.94;;;5.82;100.00
12219;BME280;6172;42.646;23.344;2023-11-22T02:10:57;93836.28;;;5.65;100.00
12219;BME280;6172;42.646;23.344;2023-11-22T02:13:24;93832.41;;;5.63;100.00
12219;BME280;6172;42.646;23.344;2023-11-22T02:15:52;93839.22;;;5.78;100.00
12219;BME280;6172;42.646;23.344;2023-11-22T02:18:21;93847.03;;;5.69;100.00
12219;BME280;6172;42.646;23.344;2023-11-22T02:20:48;93842.16;;;5.57;100.00
12219;BME280;6172;42.646;23.344;2023-11-22T02:23:17;93843.19;;;5.66;100.00
12219;BME280;6172;42.646;23.344;2023-11-22T02:25:45;93837.38;;;5.72;100.00
12219;BME280;6172;42.646;23.344;2023-11-22T02:28:12;93848.22;;;5.68;100.00
12219;BME280;6172;42.646;23.344;2023-11-22T02:30:39;93846.72;;;5.63;100.00
12219;BME280;6172;42.646;23.344;2023-11-22T02:33:07;93852.88;;;5.64;100.00
12219;BME280;6172;42.646;23.344;2023-11-22T02:35:34;93842.81;;;5.68;100.00
12219;BME280;6172;42.646;23.344;2023-11-22T02:38:01;93850.09;;;5.71;100.00
12219;BME280;6172;42.646;23.344;2023-11-22T02:40:29;93843.53;;;5.72;100.00
12219;BME280;6172;42.646;23.344;2023-11-22T02:42:56;93846.69;;;5.67;100.00
12219;BME280;6172;42.646;23.344;2023-11-22T02:45:26;93846.31;;;5.65;100.00
12219;BME280;6172;42.646;23.344;2023-11-22T02:47:53;93841.75;;;5.58;100.00
12219;BME280;6172;42.646;23.344;2023-11-22T02:50:20;93846.41;;;5.54;100.00
12219;BME280;6172;42.646;23.344;2023-11-22T02:52:47;93844.78;;;5.64;100.00
12219;BME280;6172;42.646;23.344;2023-11-22T02:55:14;93851.34;;;5.63;100.00
12219;BME280;6172;42.646;23.344;2023-11-22T02:57:42;93845.44;;;5.75;100.00
12219;BME280;6172;42.646;23.344;2023-11-22T03:00:11;93838.56;;;5.67;100.00
12219;BME280;6172;42.646;23.344;2023-11-22T03:02:40;93829.53;;;5.47;100.00
12219;BME280;6172;42.646;23.344;2023-11-22T03:05:08;93848.03;;;5.48;100.00
12219;BME280;6172;42.646;23.344;2023-11-22T03:07:35;93848.34;;;5.54;100.00
12219;BME280;6172;42.646;23.344;2023-11-22T03:10:02;93850.22;;;5.60;100.00
12219;BME280;6172;42.646;23.344;2023-11-22T03:12:30;93859.41;;;5.66;100.00
12219;BME280;6172;42.646;23.344;2023-11-22T03:14:58;93856.88;;;5.86;100.00
12219;BME280;6172;42.646;23.344;2023-11-22T03:17:27;93861.66;;;5.75;100.00
12219;BME280;6172;42.646;23.344;2023-11-22T03:19:55;93852.31;;;5.83;100.00
12219;BME280;6172;42.646;23.344;2023-11-22T03:22:27;93853.09;;;5.80;100.00
12219;BME280;6172;42.646;23.344;2023-11-22T03:24:55;93851.41;;;5.93;100.00
12219;BME280;6172;42.646;23.344;2023-11-22T03:27:23;93868.16;;;5.81;100.00
12219;BME280;6172;42.646;23.344;2023-11-22T03:29:51;93860.34;;;5.90;100.00
12219;BME280;6172;42.646;23.344;2023-11-22T03:32:19;93856.56;;;5.81;100.00
12219;BME280;6172;42.646;23.344;2023-11-22T03:34:47;93860.81;;;5.82;100.00
12219;BME280;6172;42.646;23.344;2023-11-22T03:37:14;93859.25;;;5.84;100.00
12219;BME280;6172;42.646;23.344;2023-11-22T03:39:41;93847.28;;;5.82;100.00
12219;BME280;6172;42.646;23.344;2023-11-22T03:42:14;93845.00;;;5.80;100.00
12219;BME280;6172;42.646;23.344;2023-11-22T03:44:41;93850.66;;;5.89;100.00
12219;BME280;6172;42.646;23.344;2023-11-22T03:47:09;93854.53;;;5.92;100.00
12219;BME280;6172;42.646;23.344;2023-11-22T03:49:38;93840.50;;;6.00;100.00
12219;BME280;6172;42.646;23.344;2023-11-22T03:52:05;93844.28;;;6.06;100.00
12219;BME280;6172;42.646;23.344;2023-11-22T03:54:34;93838.13;;;6.06;100.00
12219;BME280;6172;42.646;23.344;2023-11-22T03:57:00;93830.69;;;5.80;100.00
12219;BME280;6172;42.646;23.344;2023-11-22T03:59:28;93839.84;;;5.89;100.00
12219;BME280;6172;42.646;23.344;2023-11-22T04:01:55;93847.94;;;5.93;100.00
12219;BME280;6172;42.646;23.344;2023-11-22T04:04:24;93845.19;;;5.96;100.00
12219;BME280;6172;42.646;23.344;2023-11-22T04:06:53;93844.91;;;5.87;100.00
12219;BME280;6172;42.646;23.344;2023-11-22T04:09:20;93854.94;;;5.87;100.00
12219;BME280;6172;42.646;23.344;2023-11-22T04:11:49;93845.63;;;5.91;100.00
12219;BME280;6172;42.646;23.344;2023-11-22T04:14:33;93859.09;;;5.95;100.00
12219;BME280;6172;42.646;23.344;2023-11-22T04:17:01;93864.16;;;5.93;100.00
12219;BME280;6172;42.646;23.344;2023-11-22T04:19:28;93866.78;;;6.00;100.00
12219;BME280;6172;42.646;23.344;2023-11-22T04:21:56;93865.09;;;6.09;100.00
12219;BME280;6172;42.646;23.344;2023-11-22T04:24:24;93875.94;;;6.09;100.00
12219;BME280;6172;42.646;23.344;2023-11-22T04:26:54;93882.44;;;6.15;100.00
12219;BME280;6172;42.646;23.344;2023-11-22T04:29:21;93881.94;;;6.24;100.00
12219;BME280;6172;42.646;23.344;2023-11-22T04:31:48;93887.09;;;6.15;100.00
12219;BME280;6172;42.646;23.344;2023-11-22T04:34:14;93892.84;;;6.17;100.00
12219;BME280;6172;42.646;23.344;2023-11-22T04:36:41;93893.03;;;6.03;100.00
12219;BME280;6172;42.646;23.344;2023-11-22T04:39:12;93896.97;;;5.95;100.00
12219;BME280;6172;42.646;23.344;2023-11-22T04:41:39;93889.03;;;6.14;100.00
12219;BME280;6172;42.646;23.344;2023-11-22T04:44:06;93895.44;;;5.94;100.00
12219;BME280;6172;42.646;23.344;2023-11-22T04:46:33;93900.81;;;5.97;100.00
12219;BME280;6172;42.646;23.344;2023-11-22T04:49:00;93914.25;;;5.67;100.00
12219;BME280;6172;42.646;23.344;2023-11-22T04:51:27;93903.00;;;5.72;100.00
12219;BME280;6172;42.646;23.344;2023-11-22T04:53:54;93912.50;;;5.87;100.00
12219;BME280;6172;42.646;23.344;2023-11-22T04:56:23;93915.22;;;5.87;100.00
12219;BME280;6172;42.646;23.344;2023-11-22T04:58:50;93932.25;;;5.84;100.00
12219;BME280;6172;42.646;23.344;2023-11-22T05:01:17;93940.34;;;5.84;100.00
12219;BME280;6172;42.646;23.344;2023-11-22T05:03:44;93944.31;;;5.73;100.00
12219;BME280;6172;42.646;23.344;2023-11-22T05:06:11;93950.06;;;5.78;100.00
12219;BME280;6172;42.646;23.344;2023-11-22T05:08:38;93958.50;;;5.84;100.00
12219;BME280;6172;42.646;23.344;2023-11-22T05:11:05;93951.22;;;5.77;100.00
12219;BME280;6172;42.646;23.344;2023-11-22T05:13:34;93962.38;;;5.83;100.00
12219;BME280;6172;42.646;23.344;2023-11-22T05:16:01;93963.19;;;5.80;100.00
12219;BME280;6172;42.646;23.344;2023-11-22T05:18:28;93962.72;;;5.85;100.00
12219;BME280;6172;42.646;23.344;2023-11-22T05:20:55;93975.50;;;5.84;100.00
12219;BME280;6172;42.646;23.344;2023-11-22T05:23:22;93964.91;;;6.00;100.00
12219;BME280;6172;42.646;23.344;2023-11-22T05:25:49;93971.06;;;6.04;100.00
12219;BME280;6172;42.646;23.344;2023-11-22T05:28:16;93973.16;;;5.86;100.00
12219;BME280;6172;42.646;23.344;2023-11-22T05:30:44;93986.63;;;5.93;100.00
12219;BME280;6172;42.646;23.344;2023-11-22T05:33:11;93992.53;;;5.81;100.00
12219;BME280;6172;42.646;23.344;2023-11-22T05:35:38;93997.44;;;5.93;100.00
12219;BME280;6172;42.646;23.344;2023-11-22T05:38:06;93993.50;;;6.01;100.00
12219;BME280;6172;42.646;23.344;2023-11-22T05:40:35;93995.19;;;5.85;100.00
12219;BME280;6172;42.646;23.344;2023-11-22T05:43:02;94013.59;;;6.00;100.00
12219;BME280;6172;42.646;23.344;2023-11-22T05:45:30;94013.22;;;5.98;100.00
12219;BME280;6172;42.646;23.344;2023-11-22T05:47:58;93995.78;;;6.03;100.00
12219;BME280;6172;42.646;23.344;2023-11-22T05:50:25;93990.16;;;5.87;100.00
12219;BME280;6172;42.646;23.344;2023-11-22T05:52:52;94008.19;;;6.00;100.00
12219;BME280;6172;42.646;23.344;2023-11-22T05:55:19;94018.38;;;5.86;100.00
12219;BME280;6172;42.646;23.344;2023-11-22T05:57:46;94024.84;;;5.95;100.00
12219;BME280;6172;42.646;23.344;2023-11-22T06:00:13;94024.88;;;5.92;100.00
12219;BME280;6172;42.646;23.344;2023-11-22T06:02:41;94020.22;;;5.92;100.00
12219;BME280;6172;42.646;23.344;2023-11-22T06:05:09;94029.84;;;6.00;100.00
12219;BME280;6172;42.646;23.344;2023-11-22T06:07:36;94041.38;;;6.04;100.00
12219;BME280;6172;42.646;23.344;2023-11-22T06:10:04;94039.09;;;5.99;100.00
12219;BME280;6172;42.646;23.344;2023-11-22T06:12:35;94048.38;;;6.02;100.00
12219;BME280;6172;42.646;23.344;2023-11-22T06:15:03;94052.50;;;6.13;100.00
12219;BME280;6172;42.646;23.344;2023-11-22T06:17:30;94044.88;;;6.01;100.00
12219;BME280;6172;42.646;23.344;2023-11-22T06:19:57;94056.03;;;6.07;100.00
12219;BME280;6172;42.646;23.344;2023-11-22T06:22:26;94067.50;;;6.21;100.00
12219;BME280;6172;42.646;23.344;2023-11-22T06:24:53;94065.97;;;6.20;100.00
12219;BME280;6172;42.646;23.344;2023-11-22T06:27:20;94066.78;;;6.17;100.00
12219;BME280;6172;42.646;23.344;2023-11-22T06:29:47;94066.31;;;6.22;100.00
12219;BME280;6172;42.646;23.344;2023-11-22T06:32:15;94064.72;;;6.28;100.00
12219;BME280;6172;42.646;23.344;2023-11-22T06:34:47;94062.31;;;6.37;100.00
12219;BME280;6172;42.646;23.344;2023-11-22T06:37:14;94063.13;;;6.34;100.00
12219;BME280;6172;42.646;23.344;2023-11-22T06:39:43;94052.00;;;6.25;100.00
12219;BME280;6172;42.646;23.344;2023-11-22T06:42:28;94066.66;;;6.28;100.00
12219;BME280;6172;42.646;23.344;2023-11-22T06:44:55;94076.16;;;6.46;100.00
12219;BME280;6172;42.646;23.344;2023-11-22T06:47:24;94087.78;;;6.43;100.00
12219;BME280;6172;42.646;23.344;2023-11-22T06:49:51;94085.03;;;6.47;100.00
12219;BME280;6172;42.646;23.344;2023-11-22T06:52:18;94092.81;;;6.41;100.00
12219;BME280;6172;42.646;23.344;2023-11-22T06:54:47;94089.25;;;6.51;100.00
12219;BME280;6172;42.646;23.344;2023-11-22T06:57:13;94100.03;;;6.58;100.00
12219;BME280;6172;42.646;23.344;2023-11-22T06:59:40;94096.19;;;6.59;100.00
12219;BME280;6172;42.646;23.344;2023-11-22T07:02:07;94100.34;;;6.67;100.00
12219;BME280;6172;42.646;23.344;2023-11-22T07:04:35;94093.00;;;6.64;100.00
12219;BME280;6172;42.646;23.344;2023-11-22T07:07:02;94098.00;;;6.69;100.00
12219;BME280;6172;42.646;23.344;2023-11-22T07:09:30;94093.31;;;6.73;100.00
12219;BME280;6172;42.646;23.344;2023-11-22T07:11:59;94087.41;;;6.82;100.00
12219;BME280;6172;42.646;23.344;2023-11-22T07:14:26;94099.47;;;6.74;100.00
12219;BME280;6172;42.646;23.344;2023-11-22T07:16:54;94102.63;;;6.69;100.00
12219;BME280;6172;42.646;23.344;2023-11-22T07:19:22;94102.53;;;6.79;100.00
12219;BME280;6172;42.646;23.344;2023-11-22T07:21:49;94101.34;;;6.80;100.00
12219;BME280;6172;42.646;23.344;2023-11-22T07:24:17;94117.31;;;6.71;100.00
12219;BME280;6172;42.646;23.344;2023-11-22T07:26:44;94109.91;;;6.75;100.00
12219;BME280;6172;42.646;23.344;2023-11-22T07:29:14;94107.13;;;6.82;100.00
12219;BME280;6172;42.646;23.344;2023-11-22T07:31:40;94097.78;;;6.87;100.00
12219;BME280;6172;42.646;23.344;2023-11-22T07:34:08;94108.97;;;6.92;100.00
12219;BME280;6172;42.646;23.344;2023-11-22T07:36:36;94107.50;;;6.84;100.00
12219;BME280;6172;42.646;23.344;2023-11-22T07:39:05;94115.94;;;6.90;100.00
12219;BME280;6172;42.646;23.344;2023-11-22T07:41:33;94121.69;;;6.95;100.00
12219;BME280;6172;42.646;23.344;2023-11-22T07:44:00;94119.84;;;6.85;100.00
12219;BME280;6172;42.646;23.344;2023-11-22T07:46:29;94123.28;;;6.93;100.00
12219;BME280;6172;42.646;23.344;2023-11-22T07:48:56;94120.53;;;6.96;100.00
12219;BME280;6172;42.646;23.344;2023-11-22T07:51:23;94135.41;;;7.15;100.00
12219;BME280;6172;42.646;23.344;2023-11-22T07:53:50;94129.31;;;7.04;100.00
12219;BME280;6172;42.646;23.344;2023-11-22T07:56:18;94130.19;;;6.97;100.00
12219;BME280;6172;42.646;23.344;2023-11-22T07:58:45;94137.50;;;7.00;100.00
12219;BME280;6172;42.646;23.344;2023-11-22T08:01:12;94132.66;;;7.18;100.00
12219;BME280;6172;42.646;23.344;2023-11-22T08:03:41;94132.38;;;7.09;100.00
12219;BME280;6172;42.646;23.344;2023-11-22T08:06:11;94130.31;;;7.20;100.00
12219;BME280;6172;42.646;23.344;2023-11-22T08:08:38;94136.22;;;7.12;100.00
12219;BME280;6172;42.646;23.344;2023-11-22T08:11:06;94138.16;;;7.11;100.00
12219;BME280;6172;42.646;23.344;2023-11-22T08:13:40;94124.81;;;7.27;100.00
12219;BME280;6172;42.646;23.344;2023-11-22T08:16:08;94137.16;;;7.28;100.00
12219;BME280;6172;42.646;23.344;2023-11-22T08:18:35;94139.13;;;7.28;100.00
12219;BME280;6172;42.646;23.344;2023-11-22T08:21:04;94136.22;;;7.12;100.00
12219;BME280;6172;42.646;23.344;2023-11-22T08:23:31;94138.75;;;7.26;100.00
12219;BME280;6172;42.646;23.344;2023-11-22T08:25:58;94145.25;;;7.35;100.00
12219;BME280;6172;42.646;23.344;2023-11-22T08:28:25;94138.56;;;7.43;100.00
12219;BME280;6172;42.646;23.344;2023-11-22T08:30:52;94138.94;;;7.42;100.00
12219;BME280;6172;42.646;23.344;2023-11-22T08:33:21;94154.94;;;7.63;100.00
12219;BME280;6172;42.646;23.344;2023-11-22T08:35:48;94143.38;;;7.59;100.00
12219;BME280;6172;42.646;23.344;2023-11-22T08:38:19;94143.44;;;7.55;100.00
12219;BME280;6172;42.646;23.344;2023-11-22T08:40:46;94150.81;;;7.55;100.00
12219;BME280;6172;42.646;23.344;2023-11-22T08:43:13;94154.19;;;7.62;100.00
12219;BME280;6172;42.646;23.344;2023-11-22T08:45:40;94160.34;;;7.66;100.00
12219;BME280;6172;42.646;23.344;2023-11-22T08:48:09;94153.59;;;7.78;100.00
12219;BME280;6172;42.646;23.344;2023-11-22T08:50:36;94159.31;;;7.83;100.00
12219;BME280;6172;42.646;23.344;2023-11-22T08:53:03;94142.13;;;7.67;100.00
12219;BME280;6172;42.646;23.344;2023-11-22T08:55:32;94159.66;;;7.59;100.00
12219;BME280;6172;42.646;23.344;2023-11-22T08:57:59;94145.84;;;7.76;100.00
12219;BME280;6172;42.646;23.344;2023-11-22T09:00:26;94143.00;;;7.87;100.00
12219;BME280;6172;42.646;23.344;2023-11-22T09:02:54;94153.28;;;7.99;100.00
12219;BME280;6172;42.646;23.344;2023-11-22T09:05:21;94160.75;;;7.91;100.00
12219;BME280;6172;42.646;23.344;2023-11-22T09:07:48;94162.00;;;8.13;100.00
12219;BME280;6172;42.646;23.344;2023-11-22T09:10:17;94170.53;;;8.12;100.00
12219;BME280;6172;42.646;23.344;2023-11-22T09:12:48;94166.22;;;8.14;100.00
12219;BME280;6172;42.646;23.344;2023-11-22T09:15:15;94173.22;;;8.16;100.00
12219;BME280;6172;42.646;23.344;2023-11-22T09:17:44;94180.78;;;8.28;100.00
12219;BME280;6172;42.646;23.344;2023-11-22T09:20:12;94172.28;;;8.26;100.00
12219;BME280;6172;42.646;23.344;2023-11-22T09:22:44;94175.19;;;8.42;100.00
12219;BME280;6172;42.646;23.344;2023-11-22T09:25:17;94164.63;;;8.47;100.00
12219;BME280;6172;42.646;23.344;2023-11-22T09:27:46;94175.03;;;8.22;100.00
12219;BME280;6172;42.646;23.344;2023-11-22T09:30:14;94183.38;;;8.38;100.00
12219;BME280;6172;42.646;23.344;2023-11-22T09:32:57;94179.75;;;8.18;100.00
12219;BME280;6172;42.646;23.344;2023-11-22T09:35:25;94189.13;;;8.13;100.00
12219;BME280;6172;42.646;23.344;2023-11-22T09:37:54;94189.66;;;8.32;100.00
12219;BME280;6172;42.646;23.344;2023-11-22T09:40:22;94185.75;;;8.33;100.00
12219;BME280;6172;42.646;23.344;2023-11-22T09:42:51;94184.66;;;8.27;100.00
12219;BME280;6172;42.646;23.344;2023-11-22T09:45:19;94183.84;;;8.30;100.00
12219;BME280;6172;42.646;23.344;2023-11-22T09:47:46;94187.19;;;8.14;100.00
12219;BME280;6172;42.646;23.344;2023-11-22T09:50:19;94195.28;;;8.18;100.00
12219;BME280;6172;42.646;23.344;2023-11-22T09:52:49;94187.53;;;8.16;100.00
12219;BME280;6172;42.646;23.344;2023-11-22T09:55:18;94189.94;;;8.10;100.00
12219;BME280;6172;42.646;23.344;2023-11-22T09:57:46;94190.00;;;8.07;100.00
12219;BME280;6172;42.646;23.344;2023-11-22T10:00:16;94191.50;;;8.12;100.00
12219;BME280;6172;42.646;23.344;2023-11-22T10:02:44;94187.34;;;8.30;100.00
12219;BME280;6172;42.646;23.344;2023-11-22T10:05:12;94182.06;;;8.20;100.00
12219;BME280;6172;42.646;23.344;2023-11-22T10:07:39;94200.81;;;8.10;100.00
12219;BME280;6172;42.646;23.344;2023-11-22T10:10:07;94191.31;;;8.22;100.00
12219;BME280;6172;42.646;23.344;2023-11-22T10:12:36;94182.06;;;8.20;100.00
12219;BME280;6172;42.646;23.344;2023-11-22T10:15:12;94180.28;;;8.09;100.00
12219;BME280;6172;42.646;23.344;2023-11-22T10:17:47;94175.97;;;8.12;100.00
12219;BME280;6172;42.646;23.344;2023-11-22T10:20:15;94175.28;;;8.04;100.00
12219;BME280;6172;42.646;23.344;2023-11-22T10:22:44;94183.81;;;8.06;100.00
12219;BME280;6172;42.646;23.344;2023-11-22T10:25:13;94184.09;;;8.12;100.00
12219;BME280;6172;42.646;23.344;2023-11-22T10:27:44;94192.44;;;8.25;100.00
12219;BME280;6172;42.646;23.344;2023-11-22T10:30:11;94181.53;;;8.28;100.00
12219;BME280;6172;42.646;23.344;2023-11-22T10:32:41;94178.94;;;7.94;100.00
12219;BME280;6172;42.646;23.344;2023-11-22T10:35:08;94172.44;;;8.15;100.00
12219;BME280;6172;42.646;23.344;2023-11-22T10:37:36;94190.38;;;8.36;100.00
12219;BME280;6172;42.646;23.344;2023-11-22T10:40:06;94183.38;;;8.35;100.00
12219;BME280;6172;42.646;23.344;2023-11-22T10:42:38;94186.31;;;8.21;100.00
12219;BME280;6172;42.646;23.344;2023-11-22T10:45:08;94193.63;;;8.24;100.00
12219;BME280;6172;42.646;23.344;2023-11-22T10:47:36;94200.59;;;8.25;100.00
12219;BME280;6172;42.646;23.344;2023-11-22T10:50:07;94192.66;;;8.10;100.00
12219;BME280;6172;42.646;23.344;2023-11-22T10:52:36;94195.03;;;8.08;100.00
12219;BME280;6172;42.646;23.344;2023-11-22T10:55:05;94183.06;;;8.29;100.00
12219;BME280;6172;42.646;23.344;2023-11-22T10:57:43;94183.84;;;8.30;100.00
12219;BME280;6172;42.646;23.344;2023-11-22T11:00:12;94179.88;;;8.38;100.00
12219;BME280;6172;42.646;23.344;2023-11-22T11:02:41;94175.31;;;8.31;100.00
12219;BME280;6172;42.646;23.344;2023-11-22T11:05:15;94175.66;;;8.33;100.00
12219;BME280;6172;42.646;23.344;2023-11-22T11:07:48;94180.72;;;8.04;100.00
12219;BME280;6172;42.646;23.344;2023-11-22T11:10:19;94181.13;;;8.03;100.00
12219;BME280;6172;42.646;23.344;2023-11-22T11:12:47;94190.00;;;8.07;100.00
12219;BME280;6172;42.646;23.344;2023-11-22T11:15:15;94191.63;;;8.28;100.00
12219;BME280;6172;42.646;23.344;2023-11-22T11:17:44;94196.66;;;8.29;100.00
12219;BME280;6172;42.646;23.344;2023-11-22T11:20:17;94193.06;;;8.09;100.00
12219;BME280;6172;42.646;23.344;2023-11-22T11:22:47;94182.22;;;8.09;100.00
12219;BME280;6172;42.646;23.344;2023-11-22T11:25:15;94183.84;;;8.03;100.00
12219;BME280;6172;42.646;23.344;2023-11-22T11:27:44;94183.16;;;8.26;100.00
12219;BME280;6172;42.646;23.344;2023-11-22T11:33:12;94187.78;;;8.25;100.00
12219;BME280;6172;42.646;23.344;2023-11-22T11:35:44;94185.09;;;8.52;100.00
12219;BME280;6172;42.646;23.344;2023-11-22T11:38:13;94176.59;;;8.50;100.00
12219;BME280;6172;42.646;23.344;2023-11-22T11:40:41;94184.28;;;8.55;100.00
12219;BME280;6172;42.646;23.344;2023-11-22T11:43:08;94184.78;;;8.46;100.00
12219;BME280;6172;42.646;23.344;2023-11-22T11:45:37;94183.38;;;8.61;100.00
12219;BME280;6172;42.646;23.344;2023-11-22T11:48:05;94182.59;;;8.61;100.00
12219;BME280;6172;42.646;23.344;2023-11-22T11:50:32;94184.28;;;8.78;100.00
12219;BME280;6172;42.646;23.344;2023-11-22T11:53:00;94189.09;;;8.90;100.00
12219;BME280;6172;42.646;23.344;2023-11-22T11:55:28;94177.38;;;8.73;100.00
12219;BME280;6172;42.646;23.344;2023-11-22T11:57:55;94188.47;;;8.33;100.00
12219;BME280;6172;42.646;23.344;2023-11-22T12:00:22;94190.88;;;8.54;100.00
12219;BME280;6172;42.646;23.344;2023-11-22T12:02:50;94185.28;;;8.64;100.00
12219;BME280;6172;42.646;23.344;2023-11-22T12:05:19;94195.31;;;8.44;100.00
12219;BME280;6172;42.646;23.344;2023-11-22T12:07:46;94192.06;;;8.53;100.00
12219;BME280;6172;42.646;23.344;2023-11-22T12:10:15;94188.44;;;8.59;100.00
12219;BME280;6172;42.646;23.344;2023-11-22T12:12:45;94198.13;;;8.37;100.00
12219;BME280;6172;42.646;23.344;2023-11-22T12:15:12;94208.72;;;8.55;100.00
12219;BME280;6172;42.646;23.344;2023-11-22T12:17:43;94215.53;;;8.66;100.00
12219;BME280;6172;42.646;23.344;2023-11-22T12:20:23;94220.03;;;8.76;100.00
12219;BME280;6172;42.646;23.344;2023-11-22T12:22:51;94218.94;;;8.93;100.00
12219;BME280;6172;42.646;23.344;2023-11-22T12:25:22;94213.56;;;8.90;100.00
12219;BME280;6172;42.646;23.344;2023-11-22T12:28:00;94220.66;;;8.84;100.00
12219;BME280;6172;42.646;23.344;2023-11-22T12:30:32;94214.75;;;8.89;100.00
12219;BME280;6172;42.646;23.344;2023-11-22T12:33:15;94210.72;;;8.97;100.00
12219;BME280;6172;42.646;23.344;2023-11-22T12:35:43;94224.56;;;9.06;100.00
12219;BME280;6172;42.646;23.344;2023-11-22T12:38:10;94215.09;;;9.14;100.00
12219;BME280;6172;42.646;23.344;2023-11-22T12:40:43;94216.97;;;9.17;100.00
12219;BME280;6172;42.646;23.344;2023-11-22T12:43:12;94215.16;;;9.10;100.00
12219;BME280;6172;42.646;23.344;2023-11-22T12:45:39;94224.31;;;9.20;100.00
12219;BME280;6172;42.646;23.344;2023-11-22T12:48:23;94226.00;;;9.33;100.00
12219;BME280;6172;42.646;23.344;2023-11-22T12:50:51;94243.66;;;9.45;100.00
12219;BME280;6172;42.646;23.344;2023-11-22T12:53:19;94245.22;;;9.23;100.00
12219;BME280;6172;42.646;23.344;2023-11-22T12:55:50;94242.84;;;9.48;100.00
12219;BME280;6172;42.646;23.344;2023-11-22T12:58:18;94238.72;;;9.59;100.00
12219;BME280;6172;42.646;23.344;2023-11-22T13:00:46;94232.66;;;9.52;100.00
12219;BME280;6172;42.646;23.344;2023-11-22T13:03:14;94242.56;;;9.42;100.00
12219;BME280;6172;42.646;23.344;2023-11-22T13:05:43;94258.38;;;9.47;100.00
12219;BME280;6172;42.646;23.344;2023-11-22T13:08:10;94249.00;;;9.29;100.00